sensor_id;sensor_type;location;lat;lon;timestamp;pressure;altitude;pressure_sealevel;temperature;humidity
49393;BME280;35268;42.642;23.308;2024-01-07T00:01:56;92451.78;;;5.75;83.31
49393;BME280;35268;42.642;23.308;2024-01-07T00:04:21;92445.88;;;5.78;82.97
49393;BME280;35268;42.642;23.308;2024-01-07T00:06:47;92449.28;;;5.79;82.61
49393;BME280;35268;42.642;23.308;2024-01-07T00:09:12;92432.00;;;5.81;82.55
49393;BME280;35268;42.642;23.308;2024-01-07T00:11:38;92432.66;;;5.78;82.34
49393;BME280;35268;42.642;23.308;2024-01-07T00:14:04;92432.19;;;5.76;82.50
49393;BME280;35268;42.642;23.308;2024-01-07T00:16:29;92422.84;;;5.79;82.66
49393;BME280;35268;42.642;23.308;2024-01-07T00:18:54;92412.44;;;5.74;82.77
49393;BME280;35268;42.642;23.308;2024-01-07T00:21:20;92426.91;;;5.76;82.32
49393;BME280;35268;42.642;23.308;2024-01-07T00:23:45;92416.78;;;5.78;82.37
49393;BME280;35268;42.642;23.308;2024-01-07T00:26:11;92420.97;;;5.79;82.61
49393;BME280;35268;42.642;23.308;2024-01-07T00:28:36;92414.59;;;5.80;82.91
49393;BME280;35268;42.642;23.308;2024-01-07T00:31:01;92404.94;;;5.85;83.04
49393;BME280;35268;42.642;23.308;2024-01-07T00:33:27;92404.72;;;5.60;83.92
49393;BME280;35268;42.642;23.308;2024-01-07T00:35:52;92391.91;;;5.71;83.95
49393;BME280;35268;42.642;23.308;2024-01-07T00:38:17;92386.59;;;5.79;83.28
49393;BME280;35268;42.642;23.308;2024-01-07T00:40:43;92378.81;;;5.83;83.24
49393;BME280;35268;42.642;23.308;2024-01-07T00:43:09;92385.47;;;5.89;82.87
49393;BME280;35268;42.642;23.308;2024-01-07T00:45:34;92371.94;;;5.82;83.32
49393;BME280;35268;42.642;23.308;2024-01-07T00:47:59;92384.09;;;5.83;83.68
49393;BME280;35268;42.642;23.308;2024-01-07T00:50:25;92379.25;;;5.85;83.78
49393;BME280;35268;42.642;23.308;2024-01-07T00:52:50;92359.31;;;5.88;83.89
49393;BME280;35268;42.642;23.308;2024-01-07T00:55:16;92357.44;;;5.88;83.89
49393;BME280;35268;42.642;23.308;2024-01-07T00:57:42;92346.09;;;5.96;83.27
49393;BME280;35268;42.642;23.308;2024-01-07T01:00:08;92338.28;;;6.00;82.86
49393;BME280;35268;42.642;23.308;2024-01-07T01:02:33;92344.69;;;5.99;82.83
49393;BME280;35268;42.642;23.308;2024-01-07T01:05:01;92341.38;;;6.02;82.70
49393;BME280;35268;42.642;23.308;2024-01-07T01:07:26;92343.72;;;6.03;82.26
49393;BME280;35268;42.642;23.308;2024-01-07T01:09:51;92332.81;;;6.05;82.33
49393;BME280;35268;42.642;23.308;2024-01-07T01:12:17;92341.84;;;6.04;82.03
49393;BME280;35268;42.642;23.308;2024-01-07T01:14:42;92335.16;;;6.07;82.31
49393;BME280;35268;42.642;23.308;2024-01-07T01:17:08;92322.25;;;6.05;81.93
49393;BME280;35268;42.642;23.308;2024-01-07T01:19:33;92319.59;;;6.05;81.74
49393;BME280;35268;42.642;23.308;2024-01-07T01:21:59;92311.84;;;6.00;81.88
49393;BME280;35268;42.642;23.308;2024-01-07T01:24:24;92302.38;;;5.99;82.23
49393;BME280;35268;42.642;23.308;2024-01-07T01:26:49;92291.91;;;6.02;82.08
49393;BME280;35268;42.642;23.308;2024-01-07T01:29:15;92276.81;;;6.03;81.96
49393;BME280;35268;42.642;23.308;2024-01-07T01:31:40;92260.94;;;6.03;82.21
49393;BME280;35268;42.642;23.308;2024-01-07T01:34:05;92260.19;;;6.02;82.21
49393;BME280;35268;42.642;23.308;2024-01-07T01:36:31;92257.19;;;6.04;82.09
49393;BME280;35268;42.642;23.308;2024-01-07T01:38:57;92269.97;;;6.02;82.05
49393;BME280;35268;42.642;23.308;2024-01-07T01:41:22;92254.56;;;6.04;81.86
49393;BME280;35268;42.642;23.308;2024-01-07T01:43:48;92242.44;;;6.03;81.88
49393;BME280;35268;42.642;23.308;2024-01-07T01:46:13;92252.81;;;6.08;81.69
49393;BME280;35268;42.642;23.308;2024-01-07T01:48:39;92240.56;;;6.03;81.71
49393;BME280;35268;42.642;23.308;2024-01-07T01:51:06;92225.22;;;5.97;81.80
49393;BME280;35268;42.642;23.308;2024-01-07T01:53:32;92207.38;;;5.85;81.88
49393;BME280;35268;42.642;23.308;2024-01-07T01:56:00;92212.81;;;5.89;82.21
49393;BME280;35268;42.642;23.308;2024-01-07T01:58:28;92210.63;;;5.91;82.25
49393;BME280;35268;42.642;23.308;2024-01-07T02:00:53;92209.50;;;5.92;82.24
49393;BME280;35268;42.642;23.308;2024-01-07T02:03:19;92214.78;;;5.92;82.35
49393;BME280;35268;42.642;23.308;2024-01-07T02:05:45;92204.22;;;5.92;82.57
49393;BME280;35268;42.642;23.308;2024-01-07T02:08:11;92207.97;;;5.91;82.52
49393;BME280;35268;42.642;23.308;2024-01-07T02:10:37;92217.13;;;5.93;82.63
49393;BME280;35268;42.642;23.308;2024-01-07T02:13:05;92220.25;;;5.95;82.30
49393;BME280;35268;42.642;23.308;2024-01-07T02:15:31;92193.31;;;5.93;82.79
49393;BME280;35268;42.642;23.308;2024-01-07T02:17:56;92191.78;;;5.92;82.92
49393;BME280;35268;42.642;23.308;2024-01-07T02:20:23;92188.81;;;5.94;83.57
49393;BME280;35268;42.642;23.308;2024-01-07T02:22:48;92171.22;;;5.98;83.97
49393;BME280;35268;42.642;23.308;2024-01-07T02:25:14;92150.75;;;6.07;84.61
49393;BME280;35268;42.642;23.308;2024-01-07T02:27:39;92126.97;;;6.19;85.56
49393;BME280;35268;42.642;23.308;2024-01-07T02:30:05;92123.25;;;6.33;87.79
49393;BME280;35268;42.642;23.308;2024-01-07T02:32:30;92125.47;;;6.43;89.48
49393;BME280;35268;42.642;23.308;2024-01-07T02:35:01;92103.66;;;6.58;90.25
49393;BME280;35268;42.642;23.308;2024-01-07T02:37:27;92096.16;;;6.73;90.91
49393;BME280;35268;42.642;23.308;2024-01-07T02:39:52;92107.19;;;6.87;91.09
49393;BME280;35268;42.642;23.308;2024-01-07T02:42:17;92109.06;;;6.99;91.04
49393;BME280;35268;42.642;23.308;2024-01-07T02:44:43;92112.56;;;7.15;90.38
49393;BME280;35268;42.642;23.308;2024-01-07T02:47:08;92123.91;;;7.28;89.82
49393;BME280;35268;42.642;23.308;2024-01-07T02:49:34;92122.69;;;7.38;89.40
49393;BME280;35268;42.642;23.308;2024-01-07T02:51:59;92120.25;;;7.45;85.78
49393;BME280;35268;42.642;23.308;2024-01-07T02:54:25;92119.03;;;7.30;84.13
49393;BME280;35268;42.642;23.308;2024-01-07T02:56:50;92113.56;;;7.23;82.75
49393;BME280;35268;42.642;23.308;2024-01-07T02:59:15;92116.63;;;7.25;83.45
49393;BME280;35268;42.642;23.308;2024-01-07T03:01:41;92128.13;;;7.29;83.60
49393;BME280;35268;42.642;23.308;2024-01-07T03:04:12;92125.22;;;7.34;84.42
49393;BME280;35268;42.642;23.308;2024-01-07T03:06:37;92118.38;;;7.46;86.27
49393;BME280;35268;42.642;23.308;2024-01-07T03:09:03;92128.94;;;7.58;87.38
49393;BME280;35268;42.642;23.308;2024-01-07T03:11:28;92140.59;;;7.69;87.78
49393;BME280;35268;42.642;23.308;2024-01-07T03:13:55;92162.47;;;7.78;87.86
49393;BME280;35268;42.642;23.308;2024-01-07T03:16:21;92159.13;;;7.81;86.75
49393;BME280;35268;42.642;23.308;2024-01-07T03:18:47;92157.84;;;7.63;83.10
49393;BME280;35268;42.642;23.308;2024-01-07T03:21:22;92169.59;;;7.50;83.01
49393;BME280;35268;42.642;23.308;2024-01-07T03:23:49;92180.31;;;7.53;82.92
49393;BME280;35268;42.642;23.308;2024-01-07T03:26:16;92175.78;;;7.54;82.54
49393;BME280;35268;42.642;23.308;2024-01-07T03:28:42;92177.88;;;7.48;82.54
49393;BME280;35268;42.642;23.308;2024-01-07T03:31:09;92165.75;;;7.47;82.97
49393;BME280;35268;42.642;23.308;2024-01-07T03:33:36;92166.28;;;7.40;83.82
49393;BME280;35268;42.642;23.308;2024-01-07T03:36:10;92153.16;;;7.44;84.02
49393;BME280;35268;42.642;23.308;2024-01-07T03:38:36;92156.56;;;7.44;84.92
49393;BME280;35268;42.642;23.308;2024-01-07T03:41:02;92162.66;;;7.45;85.21
49393;BME280;35268;42.642;23.308;2024-01-07T03:43:28;92154.81;;;7.36;85.96
49393;BME280;35268;42.642;23.308;2024-01-07T03:45:54;92151.97;;;7.29;86.03
49393;BME280;35268;42.642;23.308;2024-01-07T03:48:19;92139.28;;;7.22;86.11
49393;BME280;35268;42.642;23.308;2024-01-07T03:50:45;92139.28;;;7.22;85.65
49393;BME280;35268;42.642;23.308;2024-01-07T03:53:10;92134.75;;;7.23;85.29
49393;BME280;35268;42.642;23.308;2024-01-07T03:55:36;92138.81;;;7.20;85.36
49393;BME280;35268;42.642;23.308;2024-01-07T03:58:01;92141.16;;;7.22;85.17
49393;BME280;35268;42.642;23.308;2024-01-07T04:00:28;92133.31;;;7.26;84.69
49393;BME280;35268;42.642;23.308;2024-01-07T04:02:53;92132.66;;;7.29;83.91
49393;BME280;35268;42.642;23.308;2024-01-07T04:05:19;92122.59;;;7.22;83.84
49393;BME280;35268;42.642;23.308;2024-01-07T04:07:44;92126.13;;;7.14;84.41
49393;BME280;35268;42.642;23.308;2024-01-07T04:10:09;92130.78;;;7.17;84.66
49393;BME280;35268;42.642;23.308;2024-01-07T04:12:36;92127.34;;;7.16;84.66
49393;BME280;35268;42.642;23.308;2024-01-07T04:15:02;92129.03;;;7.09;84.55
49393;BME280;35268;42.642;23.308;2024-01-07T04:17:28;92127.28;;;7.00;85.06
49393;BME280;35268;42.642;23.308;2024-01-07T04:19:54;92116.00;;;7.03;85.61
49393;BME280;35268;42.642;23.308;2024-01-07T04:22:19;92131.75;;;7.12;85.38
49393;BME280;35268;42.642;23.308;2024-01-07T04:24:45;92122.72;;;7.13;85.09
49393;BME280;35268;42.642;23.308;2024-01-07T04:27:10;92131.56;;;7.17;85.14
49393;BME280;35268;42.642;23.308;2024-01-07T04:29:36;92109.59;;;7.17;85.70
49393;BME280;35268;42.642;23.308;2024-01-07T04:32:01;92104.38;;;7.20;85.99
49393;BME280;35268;42.642;23.308;2024-01-07T04:34:28;92096.97;;;7.26;86.12
49393;BME280;35268;42.642;23.308;2024-01-07T04:36:53;92102.50;;;7.33;86.77
49393;BME280;35268;42.642;23.308;2024-01-07T04:39:18;92088.56;;;7.36;86.89
49393;BME280;35268;42.642;23.308;2024-01-07T04:41:44;92096.50;;;7.36;87.85
49393;BME280;35268;42.642;23.308;2024-01-07T04:44:09;92092.75;;;7.37;90.21
49393;BME280;35268;42.642;23.308;2024-01-07T04:46:38;92105.75;;;7.42;90.69
49393;BME280;35268;42.642;23.308;2024-01-07T04:49:03;92095.09;;;7.39;91.46
49393;BME280;35268;42.642;23.308;2024-01-07T04:51:29;92095.53;;;7.41;90.96
49393;BME280;35268;42.642;23.308;2024-01-07T04:53:54;92092.88;;;7.41;91.63
49393;BME280;35268;42.642;23.308;2024-01-07T04:56:20;92097.59;;;7.48;91.70
49393;BME280;35268;42.642;23.308;2024-01-07T04:58:45;92103.06;;;7.55;91.50
49393;BME280;35268;42.642;23.308;2024-01-07T05:01:11;92109.69;;;7.61;91.13
49393;BME280;35268;42.642;23.308;2024-01-07T05:03:36;92108.78;;;7.69;90.65
49393;BME280;35268;42.642;23.308;2024-01-07T05:06:03;92106.75;;;7.78;90.09
49393;BME280;35268;42.642;23.308;2024-01-07T05:08:29;92091.72;;;7.82;89.96
49393;BME280;35268;42.642;23.308;2024-01-07T05:10:55;92093.00;;;7.89;89.68
49393;BME280;35268;42.642;23.308;2024-01-07T05:13:20;92105.63;;;7.92;88.90
49393;BME280;35268;42.642;23.308;2024-01-07T05:15:46;92102.75;;;7.84;87.54
49393;BME280;35268;42.642;23.308;2024-01-07T05:18:20;92091.06;;;7.73;87.48
49393;BME280;35268;42.642;23.308;2024-01-07T05:20:45;92090.47;;;7.64;87.65
49393;BME280;35268;42.642;23.308;2024-01-07T05:23:10;92091.91;;;7.61;87.81
49393;BME280;35268;42.642;23.308;2024-01-07T05:25:36;92085.75;;;7.57;88.41
49393;BME280;35268;42.642;23.308;2024-01-07T05:28:01;92088.09;;;7.47;88.53
49393;BME280;35268;42.642;23.308;2024-01-07T05:30:27;92092.28;;;7.48;88.78
49393;BME280;35268;42.642;23.308;2024-01-07T05:32:52;92092.72;;;7.50;88.80
49393;BME280;35268;42.642;23.308;2024-01-07T05:35:18;92107.19;;;7.52;88.89
49393;BME280;35268;42.642;23.308;2024-01-07T05:37:43;92101.13;;;7.52;88.48
49393;BME280;35268;42.642;23.308;2024-01-07T05:40:09;92086.72;;;7.53;88.49
49393;BME280;35268;42.642;23.308;2024-01-07T05:42:35;92086.50;;;7.58;88.16
49393;BME280;35268;42.642;23.308;2024-01-07T05:45:01;92068.72;;;7.58;87.92
49393;BME280;35268;42.642;23.308;2024-01-07T05:47:28;92076.34;;;7.60;87.53
49393;BME280;35268;42.642;23.308;2024-01-07T05:49:53;92084.28;;;7.60;87.75
49393;BME280;35268;42.642;23.308;2024-01-07T05:52:18;92086.41;;;7.54;87.65
49393;BME280;35268;42.642;23.308;2024-01-07T05:54:44;92105.41;;;7.56;87.84
49393;BME280;35268;42.642;23.308;2024-01-07T05:57:11;92104.63;;;7.56;87.64
49393;BME280;35268;42.642;23.308;2024-01-07T05:59:37;92093.25;;;7.55;87.57
49393;BME280;35268;42.642;23.308;2024-01-07T06:02:02;92087.75;;;7.48;87.55
49393;BME280;35268;42.642;23.308;2024-01-07T06:04:28;92091.59;;;7.51;87.63
49393;BME280;35268;42.642;23.308;2024-01-07T06:06:53;92080.56;;;7.49;87.63
49393;BME280;35268;42.642;23.308;2024-01-07T06:09:19;92073.28;;;7.46;88.12
49393;BME280;35268;42.642;23.308;2024-01-07T06:11:44;92070.22;;;7.43;88.58
49393;BME280;35268;42.642;23.308;2024-01-07T06:14:09;92079.03;;;7.48;88.82
49393;BME280;35268;42.642;23.308;2024-01-07T06:16:35;92087.75;;;7.48;89.35
49393;BME280;35268;42.642;23.308;2024-01-07T06:19:00;92080.34;;;7.54;88.98
49393;BME280;35268;42.642;23.308;2024-01-07T06:21:25;92079.66;;;7.57;88.88
49393;BME280;35268;42.642;23.308;2024-01-07T06:23:52;92075.22;;;7.61;88.83
49393;BME280;35268;42.642;23.308;2024-01-07T06:26:17;92081.31;;;7.61;88.76
49393;BME280;35268;42.642;23.308;2024-01-07T06:28:43;92090.47;;;7.64;88.54
49393;BME280;35268;42.642;23.308;2024-01-07T06:31:08;92085.59;;;7.66;88.57
49393;BME280;35268;42.642;23.308;2024-01-07T06:33:34;92094.75;;;7.69;88.46
49393;BME280;35268;42.642;23.308;2024-01-07T06:36:00;92097.41;;;7.69;88.10
49393;BME280;35268;42.642;23.308;2024-01-07T06:38:25;92097.06;;;7.70;88.20
49393;BME280;35268;42.642;23.308;2024-01-07T06:40:51;92103.13;;;7.71;88.19
49393;BME280;35268;42.642;23.308;2024-01-07T06:43:16;92108.13;;;7.72;88.05
49393;BME280;35268;42.642;23.308;2024-01-07T06:45:42;92115.38;;;7.75;87.73
49393;BME280;35268;42.642;23.308;2024-01-07T06:48:08;92119.06;;;7.71;87.88
49393;BME280;35268;42.642;23.308;2024-01-07T06:50:34;92116.41;;;7.71;88.17
49393;BME280;35268;42.642;23.308;2024-01-07T06:52:59;92121.03;;;7.74;88.23
49393;BME280;35268;42.642;23.308;2024-01-07T06:55:24;92113.84;;;7.74;88.09
49393;BME280;35268;42.642;23.308;2024-01-07T06:57:50;92114.28;;;7.76;87.95
49393;BME280;35268;42.642;23.308;2024-01-07T07:00:15;92115.03;;;7.77;87.83
49393;BME280;35268;42.642;23.308;2024-01-07T07:02:41;92124.19;;;7.79;88.17
49393;BME280;35268;42.642;23.308;2024-01-07T07:05:07;92116.69;;;7.81;88.13
49393;BME280;35268;42.642;23.308;2024-01-07T07:07:33;92120.56;;;7.84;88.47
49393;BME280;35268;42.642;23.308;2024-01-07T07:09:59;92112.34;;;7.89;88.35
49393;BME280;35268;42.642;23.308;2024-01-07T07:12:24;92116.22;;;7.92;88.51
49393;BME280;35268;42.642;23.308;2024-01-07T07:14:50;92120.84;;;7.95;88.76
49393;BME280;35268;42.642;23.308;2024-01-07T07:17:15;92100.16;;;8.00;88.65
49393;BME280;35268;42.642;23.308;2024-01-07T07:19:40;92108.28;;;8.08;88.80
49393;BME280;35268;42.642;23.308;2024-01-07T07:22:06;92095.53;;;8.13;88.47
49393;BME280;35268;42.642;23.308;2024-01-07T07:24:31;92085.03;;;8.17;88.76
49393;BME280;35268;42.642;23.308;2024-01-07T07:26:57;92098.81;;;8.22;88.67
49393;BME280;35268;42.642;23.308;2024-01-07T07:29:22;92101.53;;;8.26;88.40
49393;BME280;35268;42.642;23.308;2024-01-07T07:31:47;92111.59;;;8.33;87.96
49393;BME280;35268;42.642;23.308;2024-01-07T07:34:13;92103.78;;;8.40;87.51
49393;BME280;35268;42.642;23.308;2024-01-07T07:36:39;92115.38;;;8.48;86.36
49393;BME280;35268;42.642;23.308;2024-01-07T07:39:06;92093.53;;;8.54;85.92
49393;BME280;35268;42.642;23.308;2024-01-07T07:41:31;92089.88;;;8.59;85.43
49393;BME280;35268;42.642;23.308;2024-01-07T07:43:56;92095.25;;;8.62;85.22
49393;BME280;35268;42.642;23.308;2024-01-07T07:46:22;92101.50;;;8.70;84.38
49393;BME280;35268;42.642;23.308;2024-01-07T07:48:47;92096.63;;;8.72;84.79
49393;BME280;35268;42.642;23.308;2024-01-07T07:51:13;92090.28;;;8.77;85.02
49393;BME280;35268;42.642;23.308;2024-01-07T07:53:39;92091.31;;;8.88;83.92
49393;BME280;35268;42.642;23.308;2024-01-07T07:56:08;92089.06;;;8.90;83.54
49393;BME280;35268;42.642;23.308;2024-01-07T07:58:33;92091.84;;;8.78;82.71
49393;BME280;35268;42.642;23.308;2024-01-07T08:00:59;92095.16;;;8.75;82.68
49393;BME280;35268;42.642;23.308;2024-01-07T08:03:24;92102.28;;;8.87;81.68
49393;BME280;35268;42.642;23.308;2024-01-07T08:05:49;92097.72;;;8.87;81.19
49393;BME280;35268;42.642;23.308;2024-01-07T08:08:15;92101.84;;;8.84;81.06
49393;BME280;35268;42.642;23.308;2024-01-07T08:10:42;92091.66;;;8.87;81.65
49393;BME280;35268;42.642;23.308;2024-01-07T08:13:08;92098.56;;;8.91;82.17
49393;BME280;35268;42.642;23.308;2024-01-07T08:15:34;92091.88;;;8.97;81.92
49393;BME280;35268;42.642;23.308;2024-01-07T08:18:01;92096.22;;;9.06;81.37
49393;BME280;35268;42.642;23.308;2024-01-07T08:20:27;92098.63;;;9.11;81.45
49393;BME280;35268;42.642;23.308;2024-01-07T08:22:53;92081.31;;;9.17;81.22
49393;BME280;35268;42.642;23.308;2024-01-07T08:25:18;92086.78;;;9.24;80.40
49393;BME280;35268;42.642;23.308;2024-01-07T08:27:44;92089.25;;;9.33;79.23
49393;BME280;35268;42.642;23.308;2024-01-07T08:30:09;92096.94;;;9.38;79.17
49393;BME280;35268;42.642;23.308;2024-01-07T08:32:37;92082.66;;;9.46;78.93
49393;BME280;35268;42.642;23.308;2024-01-07T08:35:02;92085.81;;;9.52;78.95
49393;BME280;35268;42.642;23.308;2024-01-07T08:37:28;92108.03;;;9.59;80.55
49393;BME280;35268;42.642;23.308;2024-01-07T08:39:56;92100.13;;;9.63;80.29
49393;BME280;35268;42.642;23.308;2024-01-07T08:42:21;92091.84;;;9.68;78.95
49393;BME280;35268;42.642;23.308;2024-01-07T08:44:47;92088.22;;;9.76;78.39
49393;BME280;35268;42.642;23.308;2024-01-07T08:47:13;92085.69;;;9.83;78.33
49393;BME280;35268;42.642;23.308;2024-01-07T08:49:38;92085.34;;;9.66;77.88
49393;BME280;35268;42.642;23.308;2024-01-07T08:52:04;92093.34;;;9.85;77.82
49393;BME280;35268;42.642;23.308;2024-01-07T08:54:30;92090.31;;;9.87;77.32
49393;BME280;35268;42.642;23.308;2024-01-07T08:56:55;92074.97;;;9.80;77.47
49393;BME280;35268;42.642;23.308;2024-01-07T08:59:21;92073.66;;;9.90;79.09
49393;BME280;35268;42.642;23.308;2024-01-07T09:01:46;92075.84;;;10.07;78.82
49393;BME280;35268;42.642;23.308;2024-01-07T09:04:11;92068.00;;;10.14;78.49
49393;BME280;35268;42.642;23.308;2024-01-07T09:06:37;92065.34;;;10.14;78.45
49393;BME280;35268;42.642;23.308;2024-01-07T09:09:02;92088.31;;;10.22;78.76
49393;BME280;35268;42.642;23.308;2024-01-07T09:11:31;92073.50;;;10.25;77.71
49393;BME280;35268;42.642;23.308;2024-01-07T09:13:57;92083.81;;;10.27;76.82
49393;BME280;35268;42.642;23.308;2024-01-07T09:16:22;92100.31;;;10.32;77.87
49393;BME280;35268;42.642;23.308;2024-01-07T09:18:48;92091.00;;;10.46;78.15
49393;BME280;35268;42.642;23.308;2024-01-07T09:21:13;92092.81;;;10.61;78.11
49393;BME280;35268;42.642;23.308;2024-01-07T09:23:40;92084.28;;;10.75;77.70
49393;BME280;35268;42.642;23.308;2024-01-07T09:26:06;92092.09;;;10.91;77.57
49393;BME280;35268;42.642;23.308;2024-01-07T09:28:32;92094.63;;;11.07;75.57
49393;BME280;35268;42.642;23.308;2024-01-07T09:30:57;92093.94;;;11.10;75.38
49393;BME280;35268;42.642;23.308;2024-01-07T09:33:23;92087.16;;;11.16;74.85
49393;BME280;35268;42.642;23.308;2024-01-07T09:35:50;92081.91;;;11.23;74.32
49393;BME280;35268;42.642;23.308;2024-01-07T09:38:15;92081.63;;;11.28;74.34
49393;BME280;35268;42.642;23.308;2024-01-07T09:40:41;92073.97;;;11.27;73.83
49393;BME280;35268;42.642;23.308;2024-01-07T09:43:07;92077.50;;;11.34;74.09
49393;BME280;35268;42.642;23.308;2024-01-07T09:45:36;92066.22;;;11.44;73.97
49393;BME280;35268;42.642;23.308;2024-01-07T09:48:02;92077.34;;;11.50;72.50
49393;BME280;35268;42.642;23.308;2024-01-07T09:50:27;92071.44;;;11.37;71.82
49393;BME280;35268;42.642;23.308;2024-01-07T09:52:56;92077.88;;;11.33;71.97
49393;BME280;35268;42.642;23.308;2024-01-07T09:55:31;92082.03;;;11.30;71.82
49393;BME280;35268;42.642;23.308;2024-01-07T09:57:58;92069.00;;;11.25;71.77
49393;BME280;35268;42.642;23.308;2024-01-07T10:00:26;92064.09;;;11.00;72.40
49393;BME280;35268;42.642;23.308;2024-01-07T10:02:52;92068.19;;;10.94;72.80
49393;BME280;35268;42.642;23.308;2024-01-07T10:05:17;92063.47;;;10.84;72.44
49393;BME280;35268;42.642;23.308;2024-01-07T10:07:42;92065.31;;;10.80;73.18
49393;BME280;35268;42.642;23.308;2024-01-07T10:10:15;92055.41;;;10.80;73.49
49393;BME280;35268;42.642;23.308;2024-01-07T10:12:40;92056.97;;;10.81;72.84
49393;BME280;35268;42.642;23.308;2024-01-07T10:15:06;92050.97;;;10.88;72.68
49393;BME280;35268;42.642;23.308;2024-01-07T10:17:32;92044.59;;;10.96;73.41
49393;BME280;35268;42.642;23.308;2024-01-07T10:19:58;92032.19;;;11.08;73.90
49393;BME280;35268;42.642;23.308;2024-01-07T10:22:23;92055.88;;;11.13;73.09
49393;BME280;35268;42.642;23.308;2024-01-07T10:24:51;92059.06;;;11.22;73.42
49393;BME280;35268;42.642;23.308;2024-01-07T10:27:17;92020.28;;;11.28;73.43
49393;BME280;35268;42.642;23.308;2024-01-07T10:29:42;92026.47;;;11.36;73.20
49393;BME280;35268;42.642;23.308;2024-01-07T10:32:08;92033.38;;;11.40;72.69
49393;BME280;35268;42.642;23.308;2024-01-07T10:34:35;92018.97;;;11.45;72.44
49393;BME280;35268;42.642;23.308;2024-01-07T10:37:03;92022.09;;;11.51;72.30
49393;BME280;35268;42.642;23.308;2024-01-07T10:39:29;92025.88;;;11.50;71.41
49393;BME280;35268;42.642;23.308;2024-01-07T10:41:56;92030.03;;;11.47;72.18
49393;BME280;35268;42.642;23.308;2024-01-07T10:44:30;92028.94;;;11.52;72.02
49393;BME280;35268;42.642;23.308;2024-01-07T10:46:56;92015.69;;;11.59;71.34
49393;BME280;35268;42.642;23.308;2024-01-07T10:49:24;92018.44;;;11.66;71.72
49393;BME280;35268;42.642;23.308;2024-01-07T10:54:30;92014.81;;;11.81;70.92
49393;BME280;35268;42.642;23.308;2024-01-07T10:57:24;92025.59;;;11.89;70.66
49393;BME280;35268;42.642;23.308;2024-01-07T10:59:47;92019.59;;;11.99;70.21
49393;BME280;35268;42.642;23.308;2024-01-07T11:02:13;92020.81;;;12.05;69.47
49393;BME280;35268;42.642;23.308;2024-01-07T11:07:34;92013.25;;;12.14;68.99
49393;BME280;35268;42.642;23.308;2024-01-07T11:10:08;92022.09;;;12.22;69.13
49393;BME280;35268;42.642;23.308;2024-01-07T11:12:35;92016.84;;;12.33;68.65
49393;BME280;35268;42.642;23.308;2024-01-07T11:15:01;92020.00;;;12.42;67.36
49393;BME280;35268;42.642;23.308;2024-01-07T11:20:06;92009.03;;;12.54;66.52
49393;BME280;35268;42.642;23.308;2024-01-07T11:22:31;92015.53;;;12.57;66.22
49393;BME280;35268;42.642;23.308;2024-01-07T11:24:59;92022.41;;;12.58;66.25
49393;BME280;35268;42.642;23.308;2024-01-07T11:27:26;92025.84;;;12.58;66.30
49393;BME280;35268;42.642;23.308;2024-01-07T11:29:54;92015.19;;;12.62;65.92
49393;BME280;35268;42.642;23.308;2024-01-07T11:32:28;92008.34;;;12.64;65.73
49393;BME280;35268;42.642;23.308;2024-01-07T11:34:54;92010.66;;;12.66;65.35
49393;BME280;35268;42.642;23.308;2024-01-07T11:37:22;92026.28;;;12.68;65.16
49393;BME280;35268;42.642;23.308;2024-01-07T11:39:48;92025.53;;;12.67;65.04
49393;BME280;35268;42.642;23.308;2024-01-07T11:42:15;92015.56;;;12.60;65.19
49393;BME280;35268;42.642;23.308;2024-01-07T11:44:48;92014.72;;;12.53;64.83
49393;BME280;35268;42.642;23.308;2024-01-07T11:47:15;92024.19;;;12.43;65.76
49393;BME280;35268;42.642;23.308;2024-01-07T11:49:40;92030.69;;;12.42;66.19
49393;BME280;35268;42.642;23.308;2024-01-07T11:52:06;92027.22;;;12.41;65.72
49393;BME280;35268;42.642;23.308;2024-01-07T11:54:32;92018.47;;;12.44;65.52
49393;BME280;35268;42.642;23.308;2024-01-07T11:56:57;92019.63;;;12.47;65.39
49393;BME280;35268;42.642;23.308;2024-01-07T11:59:23;92008.94;;;12.47;65.62
49393;BME280;35268;42.642;23.308;2024-01-07T12:01:48;92009.34;;;12.49;65.71
49393;BME280;35268;42.642;23.308;2024-01-07T12:04:14;92009.75;;;12.51;65.94
49393;BME280;35268;42.642;23.308;2024-01-07T12:06:39;92021.63;;;12.54;65.62
49393;BME280;35268;42.642;23.308;2024-01-07T12:09:05;92008.63;;;12.52;65.95
49393;BME280;35268;42.642;23.308;2024-01-07T12:11:31;92003.69;;;12.54;65.83
49393;BME280;35268;42.642;23.308;2024-01-07T12:13:57;92013.63;;;12.57;65.54
49393;BME280;35268;42.642;23.308;2024-01-07T12:16:24;92019.34;;;12.56;65.61
49393;BME280;35268;42.642;23.308;2024-01-07T12:18:50;92022.38;;;12.54;65.08
49393;BME280;35268;42.642;23.308;2024-01-07T12:21:19;92015.44;;;12.46;64.99
49393;BME280;35268;42.642;23.308;2024-01-07T12:23:49;92023.06;;;12.44;65.42
49393;BME280;35268;42.642;23.308;2024-01-07T12:26:17;92025.66;;;12.37;65.54
49393;BME280;35268;42.642;23.308;2024-01-07T12:28:44;92018.69;;;12.25;65.82
49393;BME280;35268;42.642;23.308;2024-01-07T12:31:10;92008.00;;;12.21;65.98
49393;BME280;35268;42.642;23.308;2024-01-07T12:33:38;92010.25;;;12.19;66.21
49393;BME280;35268;42.642;23.308;2024-01-07T12:36:06;92011.78;;;12.20;66.57
49393;BME280;35268;42.642;23.308;2024-01-07T12:38:32;92009.09;;;12.20;66.47
49393;BME280;35268;42.642;23.308;2024-01-07T12:40:58;92025.06;;;12.13;65.85
49393;BME280;35268;42.642;23.308;2024-01-07T12:43:23;92007.88;;;12.11;66.45
49393;BME280;35268;42.642;23.308;2024-01-07T12:45:49;92012.47;;;12.14;66.65
49393;BME280;35268;42.642;23.308;2024-01-07T12:48:14;92021.59;;;12.09;66.66
49393;BME280;35268;42.642;23.308;2024-01-07T12:50:40;92015.47;;;12.05;67.07
49393;BME280;35268;42.642;23.308;2024-01-07T12:53:05;92020.81;;;12.05;66.99
49393;BME280;35268;42.642;23.308;2024-01-07T12:55:31;92032.59;;;12.04;66.91
49393;BME280;35268;42.642;23.308;2024-01-07T12:57:57;92029.13;;;12.00;66.49
49393;BME280;35268;42.642;23.308;2024-01-07T13:00:24;92027.59;;;11.99;66.66